sensor_id;sensor_type;location;lat;lon;timestamp;P1;durP1;ratioP1;P2;durP2;ratioP2
49900;SDS011;35789;48.414;12.768;2023-04-24T00:00:01;4.9;;;1.2;;
49900;SDS011;35789;48.414;12.768;2023-04-24T00:05:01;4.2;;;1.7;;
49900;SDS011;35789;48.414;12.768;2023-04-24T00:10:00;4.2;;;1.7;;
49900;SDS011;35789;48.414;12.768;2023-04-24T00:15:00;4.2;;;1.7;;
49900;SDS011;35789;48.414;12.768;2023-04-24T00:20:00;4.2;;;1.7;;
49900;SDS011;35789;48.414;12.768;2023-04-24T00:25:00;4.2;;;1.7;;
49900;SDS011;35789;48.414;12.768;2023-04-24T00:30:00;4.2;;;1.7;;
49900;SDS011;35789;48.414;12.768;2023-04-24T00:35:00;4.9;;;1.8;;
49900;SDS011;35789;48.414;12.768;2023-04-24T00:40:00;4.9;;;1.8;;
49900;SDS011;35789;48.414;12.768;2023-04-24T00:45:01;4.9;;;1.8;;
49900;SDS011;35789;48.414;12.768;2023-04-24T00:50:01;4.9;;;1.8;;
49900;SDS011;35789;48.414;12.768;2023-04-24T00:55:00;4.9;;;1.8;;
49900;SDS011;35789;48.414;12.768;2023-04-24T01:00:00;4.9;;;1.8;;
49900;SDS011;35789;48.414;12.768;2023-04-24T01:05:00;4.7;;;1.9;;
49900;SDS011;35789;48.414;12.768;2023-04-24T01:10:00;4.7;;;1.9;;
49900;SDS011;35789;48.414;12.768;2023-04-24T01:15:00;4.7;;;1.9;;
49900;SDS011;35789;48.414;12.768;2023-04-24T01:20:00;4.7;;;1.9;;
49900;SDS011;35789;48.414;12.768;2023-04-24T01:25:01;4.7;;;1.9;;
49900;SDS011;35789;48.414;12.768;2023-04-24T01:30:00;4.7;;;1.9;;
49900;SDS011;35789;48.414;12.768;2023-04-24T01:35:01;6.6;;;2.2;;
49900;SDS011;35789;48.414;12.768;2023-04-24T01:40:00;6.6;;;2.2;;
49900;SDS011;35789;48.414;12.768;2023-04-24T01:45:02;6.6;;;2.2;;
49900;SDS011;35789;48.414;12.768;2023-04-24T01:50:00;6.6;;;2.2;;
49900;SDS011;35789;48.414;12.768;2023-04-24T01:55:00;6.6;;;2.2;;
49900;SDS011;35789;48.414;12.768;2023-04-24T02:00:00;6.6;;;2.2;;
49900;SDS011;35789;48.414;12.768;2023-04-24T02:05:00;4.6;;;2.0;;
49900;SDS011;35789;48.414;12.768;2023-04-24T02:10:00;4.6;;;2.0;;
49900;SDS011;35789;48.414;12.768;2023-04-24T02:15:00;4.6;;;2.0;;
49900;SDS011;35789;48.414;12.768;2023-04-24T02:20:00;4.6;;;2.0;;
49900;SDS011;35789;48.414;12.768;2023-04-24T02:25:00;4.6;;;2.0;;
49900;SDS011;35789;48.414;12.768;2023-04-24T02:30:00;4.6;;;2.0;;
49900;SDS011;35789;48.414;12.768;2023-04-24T02:35:00;4.4;;;1.6;;
49900;SDS011;35789;48.414;12.768;2023-04-24T02:40:00;4.4;;;1.6;;
49900;SDS011;35789;48.414;12.768;2023-04-24T02:45:03;4.4;;;1.6;;
49900;SDS011;35789;48.414;12.768;2023-04-24T02:50:00;4.4;;;1.6;;
49900;SDS011;35789;48.414;12.768;2023-04-24T02:55:00;4.4;;;1.6;;
49900;SDS011;35789;48.414;12.768;2023-04-24T03:00:00;4.4;;;1.6;;
49900;SDS011;35789;48.414;12.768;2023-04-24T03:05:00;3.9;;;1.6;;
49900;SDS011;35789;48.414;12.768;2023-04-24T03:10:00;3.9;;;1.6;;
49900;SDS011;35789;48.414;12.768;2023-04-24T03:15:00;3.9;;;1.6;;
49900;SDS011;35789;48.414;12.768;2023-04-24T03:20:00;3.9;;;1.6;;
49900;SDS011;35789;48.414;12.768;2023-04-24T03:25:01;3.9;;;1.6;;
49900;SDS011;35789;48.414;12.768;2023-04-24T03:30:00;3.9;;;1.6;;
49900;SDS011;35789;48.414;12.768;2023-04-24T03:35:00;4.3;;;1.5;;
49900;SDS011;35789;48.414;12.768;2023-04-24T03:40:00;4.3;;;1.5;;
49900;SDS011;35789;48.414;12.768;2023-04-24T03:45:00;4.3;;;1.5;;
49900;SDS011;35789;48.414;12.768;2023-04-24T03:50:01;4.3;;;1.5;;
49900;SDS011;35789;48.414;12.768;2023-04-24T03:55:00;4.3;;;1.5;;
49900;SDS011;35789;48.414;12.768;2023-04-24T04:00:00;4.3;;;1.5;;
49900;SDS011;35789;48.414;12.768;2023-04-24T04:05:00;3.3;;;1.3;;
49900;SDS011;35789;48.414;12.768;2023-04-24T04:10:00;3.3;;;1.3;;
49900;SDS011;35789;48.414;12.768;2023-04-24T04:15:00;3.3;;;1.3;;
49900;SDS011;35789;48.414;12.768;2023-04-24T04:20:00;3.3;;;1.3;;
49900;SDS011;35789;48.414;12.768;2023-04-24T04:25:00;3.3;;;1.3;;
49900;SDS011;35789;48.414;12.768;2023-04-24T04:30:00;3.3;;;1.3;;
49900;SDS011;35789;48.414;12.768;2023-04-24T04:35:00;3.5;;;1.0;;
49900;SDS011;35789;48.414;12.768;2023-04-24T04:40:02;3.5;;;1.0;;
49900;SDS011;35789;48.414;12.768;2023-04-24T04:45:00;3.5;;;1.0;;
49900;SDS011;35789;48.414;12.768;2023-04-24T04:50:01;3.5;;;1.0;;
49900;SDS011;35789;48.414;12.768;2023-04-24T04:55:00;3.5;;;1.0;;
49900;SDS011;35789;48.414;12.768;2023-04-24T05:00:00;3.5;;;1.0;;
49900;SDS011;35789;48.414;12.768;2023-04-24T05:05:00;4.2;;;1.3;;
49900;SDS011;35789;48.414;12.768;2023-04-24T05:10:00;4.2;;;1.3;;
49900;SDS011;35789;48.414;12.768;2023-04-24T05:15:00;4.2;;;1.3;;
49900;SDS011;35789;48.414;12.768;2023-04-24T05:20:00;4.2;;;1.3;;
49900;SDS011;35789;48.414;12.768;2023-04-24T05:25:00;4.2;;;1.3;;
49900;SDS011;35789;48.414;12.768;2023-04-24T05:30:00;4.2;;;1.3;;
49900;SDS011;35789;48.414;12.768;2023-04-24T05:35:00;3.2;;;1.0;;
49900;SDS011;35789;48.414;12.768;2023-04-24T05:40:00;3.2;;;1.0;;
49900;SDS011;35789;48.414;12.768;2023-04-24T05:45:00;3.2;;;1.0;;
49900;SDS011;35789;48.414;12.768;2023-04-24T05:50:00;3.2;;;1.0;;
49900;SDS011;35789;48.414;12.768;2023-04-24T05:55:00;3.2;;;1.0;;
49900;SDS011;35789;48.414;12.768;2023-04-24T06:00:00;3.2;;;1.0;;
49900;SDS011;35789;48.414;12.768;2023-04-24T06:05:00;2.8;;;0.9;;
49900;SDS011;35789;48.414;12.768;2023-04-24T06:10:00;2.8;;;0.9;;
49900;SDS011;35789;48.414;12.768;2023-04-24T06:15:00;2.8;;;0.9;;
49900;SDS011;35789;48.414;12.768;2023-04-24T06:20:00;2.8;;;0.9;;
49900;SDS011;35789;48.414;12.768;2023-04-24T06:25:00;2.8;;;0.9;;
49900;SDS011;35789;48.414;12.768;2023-04-24T06:30:00;2.8;;;0.9;;
49900;SDS011;35789;48.414;12.768;2023-04-24T06:35:00;3.2;;;0.9;;
49900;SDS011;35789;48.414;12.768;2023-04-24T06:40:00;3.2;;;0.9;;
49900;SDS011;35789;48.414;12.768;2023-04-24T06:45:00;3.2;;;0.9;;
49900;SDS011;35789;48.414;12.768;2023-04-24T06:50:00;3.2;;;0.9;;
49900;SDS011;35789;48.414;12.768;2023-04-24T06:55:00;3.2;;;0.9;;
49900;SDS011;35789;48.414;12.768;2023-04-24T07:00:00;3.2;;;0.9;;
49900;SDS011;35789;48.414;12.768;2023-04-24T07:05:00;5.3;;;1.1;;
49900;SDS011;35789;48.414;12.768;2023-04-24T07:10:00;5.3;;;1.1;;
49900;SDS011;35789;48.414;12.768;2023-04-24T07:15:00;5.3;;;1.1;;
49900;SDS011;35789;48.414;12.768;2023-04-24T07:20:00;5.3;;;1.1;;
49900;SDS011;35789;48.414;12.768;2023-04-24T07:25:00;5.3;;;1.1;;
49900;SDS011;35789;48.414;12.768;2023-04-24T07:30:00;5.3;;;1.1;;
49900;SDS011;35789;48.414;12.768;2023-04-24T07:35:00;3.3;;;1.1;;
49900;SDS011;35789;48.414;12.768;2023-04-24T07:40:00;3.3;;;1.1;;
49900;SDS011;35789;48.414;12.768;2023-04-24T07:45:00;3.3;;;1.1;;
49900;SDS011;35789;48.414;12.768;2023-04-24T07:50:00;3.3;;;1.1;;
49900;SDS011;35789;48.414;12.768;2023-04-24T07:55:00;3.3;;;1.1;;
49900;SDS011;35789;48.414;12.768;2023-04-24T08:00:00;3.3;;;1.1;;
49900;SDS011;35789;48.414;12.768;2023-04-24T08:05:00;3.0;;;0.9;;
49900;SDS011;35789;48.414;12.768;2023-04-24T08:10:00;3.0;;;0.9;;
49900;SDS011;35789;48.414;12.768;2023-04-24T08:15:00;3.0;;;0.9;;
49900;SDS011;35789;48.414;12.768;2023-04-24T08:20:00;3.0;;;0.9;;
49900;SDS011;35789;48.414;12.768;2023-04-24T08:25:00;3.0;;;0.9;;
49900;SDS011;35789;48.414;12.768;2023-04-24T08:30:00;3.0;;;0.9;;
49900;SDS011;35789;48.414;12.768;2023-04-24T08:35:00;3.3;;;0.7;;
49900;SDS011;35789;48.414;12.768;2023-04-24T08:40:01;3.3;;;0.7;;
49900;SDS011;35789;48.414;12.768;2023-04-24T08:45:00;3.3;;;0.7;;
49900;SDS011;35789;48.414;12.768;2023-04-24T08:50:01;3.3;;;0.7;;
49900;SDS011;35789;48.414;12.768;2023-04-24T08:55:01;3.3;;;0.7;;
49900;SDS011;35789;48.414;12.768;2023-04-24T09:00:01;3.3;;;0.7;;
49900;SDS011;35789;48.414;12.768;2023-04-24T09:05:01;2.8;;;0.9;;
49900;SDS011;35789;48.414;12.768;2023-04-24T09:10:01;2.8;;;0.9;;
49900;SDS011;35789;48.414;12.768;2023-04-24T09:15:01;2.8;;;0.9;;
49900;SDS011;35789;48.414;12.768;2023-04-24T09:20:00;2.8;;;0.9;;
49900;SDS011;35789;48.414;12.768;2023-04-24T09:25:02;2.8;;;0.9;;
49900;SDS011;35789;48.414;12.768;2023-04-24T09:30:01;2.8;;;0.9;;
49900;SDS011;35789;48.414;12.768;2023-04-24T09:35:10;3.7;;;1.2;;
49900;SDS011;35789;48.414;12.768;2023-04-24T09:40:08;3.7;;;1.2;;
49900;SDS011;35789;48.414;12.768;2023-04-24T09:45:00;3.7;;;1.2;;
49900;SDS011;35789;48.414;12.768;2023-04-24T09:50:09;3.7;;;1.2;;
49900;SDS011;35789;48.414;12.768;2023-04-24T09:55:00;3.7;;;1.2;;
49900;SDS011;35789;48.414;12.768;2023-04-24T10:00:00;3.7;;;1.2;;
49900;SDS011;35789;48.414;12.768;2023-04-24T10:05:00;2.4;;;0.6;;
49900;SDS011;35789;48.414;12.768;2023-04-24T10:10:01;2.4;;;0.6;;
49900;SDS011;35789;48.414;12.768;2023-04-24T10:15:01;2.4;;;0.6;;
49900;SDS011;35789;48.414;12.768;2023-04-24T10:20:00;2.4;;;0.6;;
49900;SDS011;35789;48.414;12.768;2023-04-24T10:25:01;2.4;;;0.6;;
49900;SDS011;35789;48.414;12.768;2023-04-24T10:30:01;2.4;;;0.6;;
49900;SDS011;35789;48.414;12.768;2023-04-24T10:35:00;2.2;;;0.6;;
49900;SDS011;35789;48.414;12.768;2023-04-24T10:40:00;2.2;;;0.6;;
49900;SDS011;35789;48.414;12.768;2023-04-24T10:45:04;2.2;;;0.6;;
49900;SDS011;35789;48.414;12.768;2023-04-24T10:50:00;2.2;;;0.6;;
49900;SDS011;35789;48.414;12.768;2023-04-24T10:55:01;2.2;;;0.6;;
49900;SDS011;35789;48.414;12.768;2023-04-24T11:00:13;2.2;;;0.6;;
49900;SDS011;35789;48.414;12.768;2023-04-24T11:05:03;2.9;;;1.0;;
49900;SDS011;35789;48.414;12.768;2023-04-24T11:10:00;2.9;;;1.0;;
49900;SDS011;35789;48.414;12.768;2023-04-24T11:15:01;2.9;;;1.0;;
49900;SDS011;35789;48.414;12.768;2023-04-24T11:20:01;2.9;;;1.0;;
49900;SDS011;35789;48.414;12.768;2023-04-24T11:25:00;2.9;;;1.0;;
49900;SDS011;35789;48.414;12.768;2023-04-24T11:30:02;2.9;;;1.0;;
49900;SDS011;35789;48.414;12.768;2023-04-24T11:35:02;3.1;;;1.1;;
49900;SDS011;35789;48.414;12.768;2023-04-24T11:40:00;3.1;;;1.1;;
49900;SDS011;35789;48.414;12.768;2023-04-24T11:45:00;3.1;;;1.1;;
49900;SDS011;35789;48.414;12.768;2023-04-24T11:50:01;3.1;;;1.1;;
49900;SDS011;35789;48.414;12.768;2023-04-24T11:55:00;3.1;;;1.1;;
49900;SDS011;35789;48.414;12.768;2023-04-24T12:00:00;3.1;;;1.1;;
49900;SDS011;35789;48.414;12.768;2023-04-24T12:05:00;2.9;;;1.1;;
49900;SDS011;35789;48.414;12.768;2023-04-24T12:10:00;2.9;;;1.1;;
49900;SDS011;35789;48.414;12.768;2023-04-24T12:15:07;2.9;;;1.1;;
49900;SDS011;35789;48.414;12.768;2023-04-24T12:20:03;2.9;;;1.1;;
49900;SDS011;35789;48.414;12.768;2023-04-24T12:25:02;2.9;;;1.1;;
49900;SDS011;35789;48.414;12.768;2023-04-24T12:30:02;2.9;;;1.1;;
49900;SDS011;35789;48.414;12.768;2023-04-24T12:35:00;4.3;;;1.0;;
49900;SDS011;35789;48.414;12.768;2023-04-24T12:40:02;4.3;;;1.0;;
49900;SDS011;35789;48.414;12.768;2023-04-24T12:45:02;4.3;;;1.0;;
49900;SDS011;35789;48.414;12.768;2023-04-24T12:50:00;4.3;;;1.0;;
49900;SDS011;35789;48.414;12.768;2023-04-24T12:55:00;4.3;;;1.0;;
49900;SDS011;35789;48.414;12.768;2023-04-24T13:00:01;4.3;;;1.0;;
49900;SDS011;35789;48.414;12.768;2023-04-24T13:05:00;6.2;;;2.4;;
49900;SDS011;35789;48.414;12.768;2023-04-24T13:10:00;6.2;;;2.4;;
49900;SDS011;35789;48.414;12.768;2023-04-24T13:15:00;6.2;;;2.4;;
49900;SDS011;35789;48.414;12.768;2023-04-24T13:20:00;6.2;;;2.4;;
49900;SDS011;35789;48.414;12.768;2023-04-24T13:25:00;6.2;;;2.4;;
49900;SDS011;35789;48.414;12.768;2023-04-24T13:30:00;6.2;;;2.4;;
49900;SDS011;35789;48.414;12.768;2023-04-24T13:35:00;3.5;;;1.3;;
49900;SDS011;35789;48.414;12.768;2023-04-24T13:40:00;3.5;;;1.3;;
49900;SDS011;35789;48.414;12.768;2023-04-24T13:45:00;3.5;;;1.3;;
49900;SDS011;35789;48.414;12.768;2023-04-24T13:50:00;3.5;;;1.3;;
49900;SDS011;35789;48.414;12.768;2023-04-24T13:55:00;3.5;;;1.3;;
49900;SDS011;35789;48.414;12.768;2023-04-24T14:00:00;4.5;;;1.3;;
49900;SDS011;35789;48.414;12.768;2023-04-24T14:05:00;4.5;;;1.3;;
49900;SDS011;35789;48.414;12.768;2023-04-24T14:10:00;4.5;;;1.3;;
49900;SDS011;35789;48.414;12.768;2023-04-24T14:15:00;4.5;;;1.3;;
49900;SDS011;35789;48.414;12.768;2023-04-24T14:20:00;4.5;;;1.3;;
49900;SDS011;35789;48.414;12.768;2023-04-24T14:25:00;4.5;;;1.3;;
49900;SDS011;35789;48.414;12.768;2023-04-24T14:30:00;3.3;;;1.3;;
49900;SDS011;35789;48.414;12.768;2023-04-24T14:35:00;3.3;;;1.3;;
49900;SDS011;35789;48.414;12.768;2023-04-24T14:40:00;3.3;;;1.3;;
49900;SDS011;35789;48.414;12.768;2023-04-24T14:45:00;3.3;;;1.3;;
49900;SDS011;35789;48.414;12.768;2023-04-24T14:50:00;3.3;;;1.3;;
49900;SDS011;35789;48.414;12.768;2023-04-24T14:55:00;3.3;;;1.3;;
49900;SDS011;35789;48.414;12.768;2023-04-24T15:00:00;4.8;;;1.2;;
49900;SDS011;35789;48.414;12.768;2023-04-24T15:05:00;4.8;;;1.2;;
49900;SDS011;35789;48.414;12.768;2023-04-24T15:10:00;4.8;;;1.2;;
49900;SDS011;35789;48.414;12.768;2023-04-24T15:15:00;4.8;;;1.2;;
49900;SDS011;35789;48.414;12.768;2023-04-24T15:20:00;4.8;;;1.2;;
49900;SDS011;35789;48.414;12.768;2023-04-24T15:25:00;4.8;;;1.2;;
49900;SDS011;35789;48.414;12.768;2023-04-24T15:30:00;5.6;;;1.1;;
49900;SDS011;35789;48.414;12.768;2023-04-24T15:35:00;5.6;;;1.1;;
49900;SDS011;35789;48.414;12.768;2023-04-24T15:40:00;5.6;;;1.1;;
49900;SDS011;35789;48.414;12.768;2023-04-24T15:45:00;5.6;;;1.1;;
49900;SDS011;35789;48.414;12.768;2023-04-24T15:50:00;5.6;;;1.1;;
49900;SDS011;35789;48.414;12.768;2023-04-24T15:55:02;5.6;;;1.1;;
49900;SDS011;35789;48.414;12.768;2023-04-24T16:00:01;4.7;;;2.3;;
49900;SDS011;35789;48.414;12.768;2023-04-24T16:05:00;4.7;;;2.3;;
49900;SDS011;35789;48.414;12.768;2023-04-24T16:10:00;4.7;;;2.3;;
49900;SDS011;35789;48.414;12.768;2023-04-24T16:15:00;4.7;;;2.3;;
49900;SDS011;35789;48.414;12.768;2023-04-24T16:20:00;4.7;;;2.3;;
49900;SDS011;35789;48.414;12.768;2023-04-24T16:25:00;4.7;;;2.3;;
49900;SDS011;35789;48.414;12.768;2023-04-24T16:30:00;2.8;;;0.9;;
49900;SDS011;35789;48.414;12.768;2023-04-24T16:35:00;2.8;;;0.9;;
49900;SDS011;35789;48.414;12.768;2023-04-24T16:40:00;2.8;;;0.9;;
49900;SDS011;35789;48.414;12.768;2023-04-24T16:45:00;2.8;;;0.9;;
49900;SDS011;35789;48.414;12.768;2023-04-24T16:50:00;2.8;;;0.9;;
49900;SDS011;35789;48.414;12.768;2023-04-24T16:55:00;2.8;;;0.9;;
49900;SDS011;35789;48.414;12.768;2023-04-24T17:00:00;3.0;;;1.2;;
49900;SDS011;35789;48.414;12.768;2023-04-24T17:05:00;3.0;;;1.2;;
49900;SDS011;35789;48.414;12.768;2023-04-24T17:10:00;3.0;;;1.2;;
49900;SDS011;35789;48.414;12.768;2023-04-24T17:15:00;3.0;;;1.2;;
49900;SDS011;35789;48.414;12.768;2023-04-24T17:20:00;3.0;;;1.2;;
49900;SDS011;35789;48.414;12.768;2023-04-24T17:25:00;3.0;;;1.2;;
49900;SDS011;35789;48.414;12.768;2023-04-24T17:30:00;4.5;;;1.4;;
49900;SDS011;35789;48.414;12.768;2023-04-24T17:35:00;4.5;;;1.4;;
49900;SDS011;35789;48.414;12.768;2023-04-24T17:40:00;4.5;;;1.4;;
49900;SDS011;35789;48.414;12.768;2023-04-24T17:45:00;4.5;;;1.4;;
49900;SDS011;35789;48.414;12.768;2023-04-24T17:50:00;4.5;;;1.4;;
49900;SDS011;35789;48.414;12.768;2023-04-24T17:55:00;4.5;;;1.4;;
49900;SDS011;35789;48.414;12.768;2023-04-24T18:00:00;4.4;;;1.5;;
49900;SDS011;35789;48.414;12.768;2023-04-24T18:05:00;4.4;;;1.5;;
49900;SDS011;35789;48.414;12.768;2023-04-24T18:10:00;4.4;;;1.5;;
49900;SDS011;35789;48.414;12.768;2023-04-24T18:15:00;4.4;;;1.5;;
49900;SDS011;35789;48.414;12.768;2023-04-24T18:20:00;4.4;;;1.5;;
49900;SDS011;35789;48.414;12.768;2023-04-24T18:25:00;4.4;;;1.5;;
49900;SDS011;35789;48.414;12.768;2023-04-24T18:30:01;4.0;;;1.5;;
49900;SDS011;35789;48.414;12.768;2023-04-24T18:35:00;4.0;;;1.5;;
49900;SDS011;35789;48.414;12.768;2023-04-24T18:40:00;4.0;;;1.5;;
49900;SDS011;35789;48.414;12.768;2023-04-24T18:45:00;4.0;;;1.5;;
49900;SDS011;35789;48.414;12.768;2023-04-24T18:50:00;4.0;;;1.5;;
49900;SDS011;35789;48.414;12.768;2023-04-24T18:55:00;4.0;;;1.5;;
49900;SDS011;35789;48.414;12.768;2023-04-24T19:00:00;3.6;;;1.4;;
49900;SDS011;35789;48.414;12.768;2023-04-24T19:05:00;3.6;;;1.4;;
49900;SDS011;35789;48.414;12.768;2023-04-24T19:10:00;3.6;;;1.4;;
49900;SDS011;35789;48.414;12.768;2023-04-24T19:15:00;3.6;;;1.4;;
49900;SDS011;35789;48.414;12.768;2023-04-24T19:20:00;3.6;;;1.4;;
49900;SDS011;35789;48.414;12.768;2023-04-24T19:25:00;3.6;;;1.4;;
49900;SDS011;35789;48.414;12.768;2023-04-24T19:30:00;5.7;;;1.7;;
49900;SDS011;35789;48.414;12.768;2023-04-24T19:35:00;5.7;;;1.7;;
49900;SDS011;35789;48.414;12.768;2023-04-24T19:40:00;5.7;;;1.7;;
49900;SDS011;35789;48.414;12.768;2023-04-24T19:45:00;5.7;;;1.7;;
49900;SDS011;35789;48.414;12.768;2023-04-24T19:50:00;5.7;;;1.7;;
49900;SDS011;35789;48.414;12.768;2023-04-24T19:55:00;5.7;;;1.7;;
49900;SDS011;35789;48.414;12.768;2023-04-24T20:00:00;4.4;;;1.4;;
49900;SDS011;35789;48.414;12.768;2023-04-24T20:05:00;4.4;;;1.4;;
49900;SDS011;35789;48.414;12.768;2023-04-24T20:10:00;4.4;;;1.4;;
49900;SDS011;35789;48.414;12.768;2023-04-24T20:15:01;4.4;;;1.4;;
49900;SDS011;35789;48.414;12.768;2023-04-24T20:20:00;4.4;;;1.4;;
49900;SDS011;35789;48.414;12.768;2023-04-24T20:25:00;4.4;;;1.4;;
49900;SDS011;35789;48.414;12.768;2023-04-24T20:30:00;5.2;;;2.0;;
49900;SDS011;35789;48.414;12.768;2023-04-24T20:35:00;5.2;;;2.0;;
49900;SDS011;35789;48.414;12.768;2023-04-24T20:40:01;5.2;;;2.0;;
49900;SDS011;35789;48.414;12.768;2023-04-24T20:45:00;5.2;;;2.0;;
49900;SDS011;35789;48.414;12.768;2023-04-24T20:50:00;5.2;;;2.0;;
49900;SDS011;35789;48.414;12.768;2023-04-24T20:55:00;5.2;;;2.0;;
49900;SDS011;35789;48.414;12.768;2023-04-24T21:00:00;5.9;;;1.6;;
49900;SDS011;35789;48.414;12.768;2023-04-24T21:05:00;5.9;;;1.6;;
49900;SDS011;35789;48.414;12.768;2023-04-24T21:10:00;5.9;;;1.6;;
49900;SDS011;35789;48.414;12.768;2023-04-24T21:15:00;5.9;;;1.6;;
49900;SDS011;35789;48.414;12.768;2023-04-24T21:20:00;5.9;;;1.6;;
49900;SDS011;35789;48.414;12.768;2023-04-24T21:25:00;5.9;;;1.6;;
49900;SDS011;35789;48.414;12.768;2023-04-24T21:30:00;3.3;;;1.1;;
49900;SDS011;35789;48.414;12.768;2023-04-24T21:35:00;3.3;;;1.1;;
49900;SDS011;35789;48.414;12.768;2023-04-24T21:40:00;3.3;;;1.1;;
49900;SDS011;35789;48.414;12.768;2023-04-24T21:45:00;3.3;;;1.1;;
49900;SDS011;35789;48.414;12.768;2023-04-24T21:50:00;3.3;;;1.1;;
49900;SDS011;35789;48.414;12.768;2023-04-24T21:55:00;3.3;;;1.1;;
49900;SDS011;35789;48.414;12.768;2023-04-24T22:00:00;4.8;;;2.1;;
49900;SDS011;35789;48.414;12.768;2023-04-24T22:05:00;4.8;;;2.1;;
49900;SDS011;35789;48.414;12.768;2023-04-24T22:10:00;4.8;;;2.1;;
49900;SDS011;35789;48.414;12.768;2023-04-24T22:15:00;4.8;;;2.1;;
49900;SDS011;35789;48.414;12.768;2023-04-24T22:20:01;4.8;;;2.1;;
49900;SDS011;35789;48.414;12.768;2023-04-24T22:25:00;4.8;;;2.1;;
49900;SDS011;35789;48.414;12.768;2023-04-24T22:30:00;5.1;;;2.1;;
49900;SDS011;35789;48.414;12.768;2023-04-24T22:35:00;5.1;;;2.1;;
49900;SDS011;35789;48.414;12.768;2023-04-24T22:40:00;5.1;;;2.1;;
49900;SDS011;35789;48.414;12.768;2023-04-24T22:45:00;5.1;;;2.1;;
49900;SDS011;35789;48.414;12.768;2023-04-24T22:50:00;5.1;;;2.1;;
49900;SDS011;35789;48.414;12.768;2023-04-24T22:55:00;5.1;;;2.1;;
49900;SDS011;35789;48.414;12.768;2023-04-24T23:00:02;10.1;;;5.6;;
49900;SDS011;35789;48.414;12.768;2023-04-24T23:05:00;10.1;;;5.6;;
49900;SDS011;35789;48.414;12.768;2023-04-24T23:10:00;10.1;;;5.6;;
49900;SDS011;35789;48.414;12.768;2023-04-24T23:15:00;10.1;;;5.6;;
49900;SDS011;35789;48.414;12.768;2023-04-24T23:20:00;10.1;;;5.6;;
49900;SDS011;35789;48.414;12.768;2023-04-24T23:25:00;10.1;;;5.6;;
49900;SDS011;35789;48.414;12.768;2023-04-24T23:30:00;6.3;;;2.8;;
49900;SDS011;35789;48.414;12.768;2023-04-24T23:35:00;6.3;;;2.8;;
49900;SDS011;35789;48.414;12.768;2023-04-24T23:40:00;6.3;;;2.8;;
49900;SDS011;35789;48.414;12.768;2023-04-24T23:45:00;6.3;;;2.8;;
49900;SDS011;35789;48.414;12.768;2023-04-24T23:50:00;6.3;;;2.8;;
49900;SDS011;35789;48.414;12.768;2023-04-24T23:55:00;6.3;;;2.8;;
